Wintergreen, VA

1:14 PM EST on November 22, 2014 (GMT -0500)
Shenandoah Valley Regional | Change Station
CLOSE
Current Station
Airport
Location: Staunton,
Elevation: 1201 ft
Nearby Weather Stations

Elev 1201 ft 38.26 °N, 78.90 °W | Updated 19 minutes ago

Clear
Clear
51 °F
Feels Like 51 °F
N
12
Wind Variable Wind from SSW
Gusts 17 mph

Today
High -- | Low -- °F
--% Chance of Precip.
Yesterday
High -- | Low -- °F
Precip. -- in
7:03 AM 4:59 PM
New Moon, 0% visible
Pressure 30.34 in
Visibility 10.0 miles
Clouds Clear
Dew Point 13 °F
Humidity 21%
Rainfall 0.00 in
Snow Depth Not available.
UV 3 out of 12
Pollen .10 out of 12
Air Quality Not available.
Flu Activity Not available.
METAR KSHD 221755Z AUTO 20010G15KT 10SM CLR 11/M11 A3034 RMK AO2 T01081107 10109 21060

More Conditions Fewer Conditions

Pressure 30.34 in
Visibility 10.0 miles
Clouds Clear
Dew Point 13 °F
Humidity 21%
Rainfall 0.00 in
Snow Depth Not available.
UV 3 out of 12
Pollen .10 out of 12
Air Quality Not available.
Flu Activity Not available.
METAR KSHD 221755Z AUTO 20010G15KT 10SM CLR 11/M11 A3034 RMK AO2 T01081107 10109 21060

More Conditions Fewer Conditions

10-Day Weather Forecast

Almanac

Astronomy

Nov. 22, 2014 Rise Set
Actual Time
Civil Twilight
Nautical Twilight
Astronomical Twilight
Moon
Length of Visible Light
Length of Day
Tomorrow will be .
, % of the Moon is Illuminated

Today's Extremes

State Highs State Lows

Community

WunderPhotos

Upload Photos

1,772,873 photos uploaded!

WunderBlogs® & News

Nearby

Air Quality

  Air Quality AQ Index Pollutant
Not available.

Snow Depth

Station Depth Elevation

Earthquake Activity

City Distance Mag. Time & Date
Minimum magnitude displayed is 2.5.

Coastal Water Temperatures

Place Temperature

Nearby Weather Stations